createdAt,value
2023-04-16T00:00:04.727Z,5.0
2023-04-16T00:05:10.958Z,6.0
2023-04-16T00:10:16.205Z,6.0
2023-04-16T00:15:22.368Z,6.0
2023-04-16T00:20:28.582Z,7.0
2023-04-16T00:25:34.800Z,7.0
2023-04-16T00:30:41.022Z,7.0
2023-04-16T00:35:47.225Z,8.5
2023-04-16T00:40:53.413Z,6.0
2023-04-16T00:45:59.639Z,8.0
2023-04-16T00:51:05.833Z,7.0
2023-04-16T00:56:12.046Z,8.0
2023-04-16T01:01:18.328Z,9.0
2023-04-16T01:06:24.446Z,8.0
2023-04-16T01:11:30.658Z,8.0
2023-04-16T01:16:36.871Z,9.0
2023-04-16T01:21:43.086Z,8.0
2023-04-16T01:26:49.311Z,7.0
2023-04-16T01:31:55.494Z,7.0
2023-04-16T01:37:01.706Z,10.0
2023-04-16T01:42:07.921Z,9.0
2023-04-16T01:47:14.119Z,9.0
2023-04-16T01:52:20.324Z,10.0
2023-04-16T01:57:25.561Z,9.0
2023-04-16T02:02:31.905Z,9.0
2023-04-16T02:07:37.974Z,10.0
2023-04-16T02:12:43.221Z,11.0
2023-04-16T02:17:49.509Z,10.5
2023-04-16T02:22:55.630Z,12.0
2023-04-16T02:28:01.835Z,13.0
2023-04-16T02:33:08.049Z,18.0
2023-04-16T02:38:14.243Z,16.0
2023-04-16T02:43:20.470Z,17.0
2023-04-16T02:48:26.723Z,19.0
2023-04-16T02:53:32.868Z,19.0
2023-04-16T02:58:39.076Z,18.0
2023-04-16T03:03:45.319Z,18.0
2023-04-16T03:08:51.510Z,18.0
2023-04-16T03:13:57.702Z,24.0
2023-04-16T03:19:03.912Z,19.5
2023-04-16T03:24:10.127Z,18.5
2023-04-16T03:29:16.324Z,21.0
2023-04-16T03:34:22.534Z,22.0
2023-04-16T03:39:28.743Z,19.0
2023-04-16T03:44:34.953Z,21.5
2023-04-16T03:49:41.183Z,24.0
2023-04-16T03:54:47.380Z,23.0
2023-04-16T03:59:52.610Z,22.0
2023-04-16T04:04:58.875Z,25.0
2023-04-16T04:10:04.038Z,24.0
2023-04-16T04:15:10.262Z,23.0
2023-04-16T04:20:16.464Z,23.0
2023-04-16T04:25:22.673Z,22.0
2023-04-16T04:30:28.877Z,25.5
2023-04-16T04:35:35.108Z,24.0
2023-04-16T04:40:41.293Z,24.0
2023-04-16T04:45:47.566Z,22.0
2023-04-16T04:50:53.709Z,24.0
2023-04-16T04:56:12.248Z,26.0
2023-04-16T05:01:06.224Z,26.0
2023-04-16T05:06:12.340Z,25.0
2023-04-16T05:11:18.548Z,27.0
2023-04-16T05:16:24.788Z,26.5
2023-04-16T05:21:30.980Z,30.0
2023-04-16T05:26:37.178Z,28.0
2023-04-16T05:31:43.386Z,29.0
2023-04-16T05:36:49.589Z,29.0
2023-04-16T05:41:55.791Z,30.0
2023-04-16T05:47:02.012Z,32.0
2023-04-16T05:52:08.268Z,27.0
2023-04-16T05:57:13.441Z,27.0
2023-04-16T06:02:19.762Z,28.0
2023-04-16T06:07:24.892Z,31.0
2023-04-16T06:12:31.095Z,24.0
2023-04-16T06:17:37.347Z,25.5
2023-04-16T06:22:43.516Z,24.0
2023-04-16T06:27:49.758Z,26.5
2023-04-16T06:32:55.982Z,23.5
2023-04-16T06:38:02.140Z,23.0
2023-04-16T06:43:08.344Z,20.0
2023-04-16T06:48:14.550Z,24.0
2023-04-16T06:53:20.782Z,22.0
2023-04-16T06:58:26.968Z,24.0
2023-04-16T07:03:33.387Z,22.0
2023-04-16T07:08:39.387Z,24.0
2023-04-16T07:13:45.587Z,24.0
2023-04-16T07:18:51.815Z,24.0
2023-04-16T07:23:58.009Z,24.0
2023-04-16T07:29:04.223Z,24.0
2023-04-16T07:34:09.451Z,22.5
2023-04-16T07:39:15.664Z,22.0
2023-04-16T07:44:21.864Z,22.0
2023-04-16T07:49:28.075Z,21.0
2023-04-16T07:54:33.298Z,21.0
2023-04-16T07:59:39.517Z,22.0
2023-04-16T08:04:45.219Z,21.0
2023-04-16T08:09:50.974Z,22.0
2023-04-16T08:14:57.166Z,22.0
2023-04-16T08:20:03.379Z,22.0
2023-04-16T08:25:09.592Z,23.0
2023-04-16T08:30:15.798Z,22.5
2023-04-16T08:35:22.016Z,21.0
2023-04-16T08:40:28.214Z,20.0
2023-04-16T08:45:34.418Z,21.0
2023-04-16T08:50:40.674Z,21.0
2023-04-16T08:55:46.866Z,21.0
2023-04-16T09:00:53.057Z,23.0
2023-04-16T09:05:59.257Z,22.0
2023-04-16T09:11:05.466Z,21.0
2023-04-16T09:16:11.731Z,21.0
2023-04-16T09:21:17.981Z,23.0
2023-04-16T09:26:24.106Z,20.0
2023-04-16T09:31:30.333Z,21.0
2023-04-16T09:36:36.512Z,20.0
2023-04-16T09:41:42.725Z,19.0
2023-04-16T09:46:48.970Z,22.0
2023-04-16T09:51:54.168Z,19.5
2023-04-16T09:57:00.394Z,20.0
2023-04-16T10:02:15.476Z,22.0
2023-04-16T10:07:11.863Z,21.5
2023-04-16T10:12:18.052Z,20.0
2023-04-16T10:17:24.304Z,20.0
2023-04-16T10:22:30.491Z,22.0
2023-04-16T10:27:36.704Z,20.0
2023-04-16T10:32:42.957Z,21.5
2023-04-16T10:37:49.119Z,20.0
2023-04-16T10:42:55.329Z,20.0
2023-04-16T10:48:01.605Z,21.0
2023-04-16T10:53:07.765Z,22.0
2023-04-16T10:58:13.970Z,21.0
2023-04-16T11:03:20.295Z,22.0
2023-04-16T11:08:26.465Z,23.0
2023-04-16T11:13:32.595Z,23.0
2023-04-16T11:18:38.796Z,21.0
2023-04-16T11:23:45.004Z,21.0
2023-04-16T11:28:51.207Z,20.5
2023-04-16T11:33:57.527Z,22.0
2023-04-16T11:39:03.728Z,23.0
2023-04-16T11:44:09.839Z,20.0
2023-04-16T11:49:15.076Z,22.0
2023-04-16T11:54:21.302Z,22.0
2023-04-16T11:59:26.518Z,23.0
2023-04-16T12:04:32.798Z,22.0
2023-04-16T12:09:40.795Z,22.0
2023-04-16T12:14:45.147Z,24.0
2023-04-16T12:19:51.350Z,20.5
2023-04-16T12:24:57.627Z,22.0
2023-04-16T12:30:03.773Z,23.0
2023-04-16T12:35:09.985Z,22.0
2023-04-16T12:40:16.188Z,22.0
2023-04-16T12:45:22.404Z,21.0
2023-04-16T12:50:28.607Z,21.0
2023-04-16T12:55:34.808Z,19.0
2023-04-16T13:00:41.024Z,19.0
2023-04-16T13:05:47.232Z,20.0
2023-04-16T13:10:53.440Z,17.0
2023-04-16T13:15:59.668Z,16.0
2023-04-16T13:21:05.927Z,16.0
2023-04-16T13:26:12.055Z,15.0
2023-04-16T13:31:18.297Z,15.0
2023-04-16T13:36:26.282Z,15.0
2023-04-16T13:41:30.685Z,15.0
2023-04-16T13:46:35.942Z,16.0
2023-04-16T13:51:42.125Z,17.0
2023-04-16T13:56:48.388Z,17.0
2023-04-16T14:01:53.600Z,16.0
2023-04-16T14:06:59.777Z,17.0
2023-04-16T14:12:05.997Z,17.0
2023-04-16T14:17:12.205Z,17.0
2023-04-16T14:22:18.393Z,16.0
2023-04-16T14:27:24.608Z,16.0
2023-04-16T14:32:30.876Z,16.0
2023-04-16T14:37:37.028Z,15.0
2023-04-16T14:42:43.241Z,14.0
2023-04-16T14:47:49.496Z,14.0
2023-04-16T14:52:55.649Z,14.0
2023-04-16T14:58:01.867Z,14.0
2023-04-16T15:03:08.194Z,15.5
2023-04-16T15:08:14.271Z,16.0
2023-04-16T15:13:20.476Z,16.0
2023-04-16T15:18:26.725Z,18.0
2023-04-16T15:23:32.909Z,18.0
2023-04-16T15:28:39.121Z,17.0
2023-04-16T15:33:45.317Z,17.0
2023-04-16T15:38:51.545Z,17.0
2023-04-16T15:43:57.733Z,17.0
2023-04-16T15:49:02.969Z,18.5
2023-04-16T15:54:09.177Z,20.5
2023-04-16T15:59:15.422Z,18.0
2023-04-16T16:04:21.675Z,17.0
2023-04-16T16:09:26.963Z,17.5
2023-04-16T16:14:33.040Z,16.0
2023-04-16T16:19:39.264Z,18.0
2023-04-16T16:24:45.473Z,18.0
2023-04-16T16:29:51.707Z,17.0
2023-04-16T16:34:57.874Z,16.0
2023-04-16T16:40:04.113Z,17.0
2023-04-16T16:45:10.320Z,16.0
2023-04-16T16:50:16.530Z,18.0
2023-04-16T16:55:22.740Z,18.0
2023-04-16T17:00:28.979Z,16.0
2023-04-16T17:05:35.163Z,17.0
2023-04-16T17:10:41.379Z,16.0
2023-04-16T17:15:47.594Z,16.0
2023-04-16T17:20:53.800Z,16.0
2023-04-16T17:26:00.015Z,16.0
2023-04-16T17:31:06.230Z,16.0
2023-04-16T17:36:12.429Z,16.0
2023-04-16T17:41:18.656Z,17.5
2023-04-16T17:46:24.888Z,17.0
2023-04-16T17:51:31.083Z,17.0
2023-04-16T17:56:36.312Z,18.0
2023-04-16T18:01:42.582Z,18.0
2023-04-16T18:06:48.753Z,18.0
2023-04-16T18:11:54.958Z,17.0
2023-04-16T18:17:01.200Z,18.0
2023-04-16T18:22:07.412Z,19.5
2023-04-16T18:27:13.591Z,18.0
2023-04-16T18:32:19.989Z,18.0
2023-04-16T18:37:26.021Z,18.0
2023-04-16T18:42:32.225Z,18.0
2023-04-16T18:47:38.466Z,18.0
2023-04-16T18:52:44.711Z,18.0
2023-04-16T18:57:50.845Z,19.0
2023-04-16T19:02:57.099Z,19.0
2023-04-16T19:08:03.283Z,20.0
2023-04-16T19:13:09.482Z,21.0
2023-04-16T19:18:15.685Z,20.0
2023-04-16T19:23:21.898Z,20.0
2023-04-16T19:28:28.108Z,21.0
2023-04-16T19:33:34.328Z,21.0
2023-04-16T19:38:40.528Z,22.0
2023-04-16T19:43:45.761Z,21.0
2023-04-16T19:48:51.977Z,22.0
2023-04-16T19:53:57.218Z,23.0
2023-04-16T19:59:03.415Z,22.0
2023-04-16T20:04:09.664Z,23.0
2023-04-16T20:09:15.835Z,22.0
2023-04-16T20:14:22.044Z,26.0
2023-04-16T20:19:28.267Z,24.5
2023-04-16T20:24:34.481Z,24.0
2023-04-16T20:29:40.673Z,25.0
2023-04-16T20:34:46.873Z,24.0
2023-04-16T20:39:53.081Z,25.0
2023-04-16T20:44:59.291Z,25.0
2023-04-16T20:50:05.497Z,24.0
2023-04-16T20:55:11.701Z,26.0
2023-04-16T21:00:17.929Z,26.5
2023-04-16T21:05:24.146Z,26.0
2023-04-16T21:10:30.328Z,25.0
2023-04-16T21:15:36.557Z,28.0
2023-04-16T21:20:42.744Z,27.0
2023-04-16T21:25:48.952Z,28.0
2023-04-16T21:30:55.160Z,26.5
2023-04-16T21:36:01.363Z,27.5
2023-04-16T21:41:06.645Z,29.0
2023-04-16T21:46:12.877Z,27.0
2023-04-16T21:51:19.040Z,27.0
2023-04-16T21:56:24.259Z,27.0
2023-04-16T22:01:30.517Z,28.0
2023-04-16T22:06:36.669Z,28.0
2023-04-16T22:11:42.887Z,27.0
2023-04-16T22:16:49.155Z,28.0
2023-04-16T22:21:55.309Z,27.0
2023-04-16T22:27:01.513Z,26.0
2023-04-16T22:32:07.821Z,27.0
2023-04-16T22:37:13.919Z,29.0
2023-04-16T22:42:20.126Z,27.0
2023-04-16T22:47:26.360Z,27.0
2023-04-16T22:52:32.547Z,28.0
2023-04-16T22:57:38.762Z,29.0
2023-04-16T23:02:45.164Z,28.0
2023-04-16T23:07:51.164Z,27.0
2023-04-16T23:12:57.379Z,26.0
2023-04-16T23:18:03.637Z,28.0
2023-04-16T23:23:09.791Z,28.0
2023-04-16T23:28:16.012Z,28.0
2023-04-16T23:38:28.414Z,27.5
2023-04-16T23:43:34.628Z,28.0
2023-04-16T23:48:39.870Z,28.5
2023-04-16T23:53:46.095Z,28.0
2023-04-16T23:58:51.308Z,30.0
